createdAt,value
2023-03-06T15:26:01.458Z,26.47
2023-03-06T15:26:37.216Z,26.63
2023-03-06T15:27:02.912Z,26.29
2023-03-06T15:27:33.176Z,26.27
2023-03-06T15:27:56.595Z,26.32
2023-03-06T15:28:33.265Z,26.10
2023-03-06T15:29:12.832Z,26.72
2023-03-06T15:29:40.314Z,26.66
2023-03-06T15:30:31.098Z,26.71
2023-03-06T15:31:22.360Z,26.43
2023-03-06T15:31:46.303Z,26.39
2023-03-06T15:32:42.596Z,26.57
2023-03-06T15:33:27.440Z,26.65
2023-03-06T15:34:09.977Z,26.96
2023-03-06T15:34:32.194Z,26.95
2023-03-06T15:35:28.486Z,27.13
2023-03-06T15:36:21.151Z,26.72
2023-03-06T15:37:00.055Z,26.73
2023-03-06T15:37:36.422Z,26.89
2023-03-06T15:38:35.592Z,26.98
2023-03-06T15:39:01.121Z,27.08
2023-03-06T15:39:32.095Z,27.25
2023-03-06T15:40:09.477Z,27.02
2023-03-06T15:40:32.303Z,27.12
2023-03-06T15:41:00.144Z,26.95
2023-03-06T15:41:45.310Z,27.18
2023-03-06T15:42:23.749Z,27.15
2023-03-06T15:42:46.751Z,27.00
2023-03-06T15:43:14.183Z,26.82
2023-03-06T15:43:46.714Z,26.93
2023-03-06T15:44:13.463Z,27.16
2023-03-06T15:44:35.277Z,27.29
2023-03-06T15:45:09.225Z,27.12
2023-03-06T15:45:32.230Z,27.08
2023-03-06T15:45:59.739Z,27.15
2023-03-06T15:46:21.624Z,27.36
2023-03-06T15:46:47.294Z,27.44
2023-03-06T15:47:12.283Z,27.40
2023-03-06T15:47:34.424Z,27.41
2023-03-06T15:47:56.649Z,27.19
2023-03-06T15:48:21.145Z,27.30
2023-03-06T15:48:53.860Z,27.24
2023-03-06T15:49:18.353Z,27.22
2023-03-06T15:49:40.778Z,27.26
2023-03-06T15:50:02.617Z,27.35
2023-03-06T15:50:27.190Z,27.14
2023-03-06T15:50:49.084Z,27.31
2023-03-06T15:51:10.863Z,27.18
2023-03-06T15:51:33.155Z,26.93
2023-03-06T15:51:57.139Z,26.85
2023-03-06T15:52:21.024Z,26.73
2023-03-06T15:52:44.418Z,26.95
2023-03-06T15:53:06.245Z,26.81
2023-03-06T15:53:37.163Z,26.94
2023-03-06T15:54:12.271Z,26.97
2023-03-06T15:54:43.124Z,26.85
2023-03-06T15:55:05.266Z,26.85
2023-03-06T15:55:27.294Z,26.86
2023-03-06T15:55:51.192Z,26.82
2023-03-06T15:56:13.580Z,26.88
2023-03-06T15:56:53.921Z,27.43
2023-03-06T15:57:59.778Z,27.40
2023-03-06T15:58:41.295Z,27.31
2023-03-06T15:59:43.179Z,27.53
2023-03-06T16:00:25.315Z,27.41
2023-03-06T16:00:48.610Z,26.64
2023-03-06T16:01:17.551Z,26.51
2023-03-06T16:01:40.756Z,26.48
2023-03-06T16:02:11.870Z,26.24
2023-03-06T16:02:33.860Z,26.25
2023-03-06T16:02:59.199Z,26.13
2023-03-06T16:03:21.190Z,26.38
2023-03-06T16:03:43.798Z,26.66
2023-03-06T16:04:06.729Z,26.50
2023-03-06T16:04:29.010Z,26.71
2023-03-06T16:04:51.532Z,26.39
2023-03-06T16:05:18.792Z,26.46
2023-03-06T16:05:41.080Z,26.61
2023-03-06T16:06:03.951Z,26.52
2023-03-06T16:06:28.240Z,26.37
2023-03-06T16:06:50.206Z,26.55
2023-03-06T16:07:20.048Z,25.99
2023-03-06T16:07:41.864Z,26.32
2023-03-06T16:08:04.893Z,26.35
2023-03-06T16:08:26.737Z,26.81
2023-03-06T16:08:48.598Z,26.45
2023-03-06T16:09:11.330Z,26.71
2023-03-06T16:09:33.132Z,26.37
2023-03-06T16:09:54.971Z,26.51
2023-03-06T16:10:20.156Z,26.52
2023-03-06T16:10:43.987Z,26.35
2023-03-06T16:11:05.815Z,25.89
2023-03-06T16:11:41.897Z,26.05
2023-03-06T16:12:06.659Z,26.34
2023-03-06T16:12:31.001Z,26.16
2023-03-06T16:12:57.592Z,26.34
2023-03-06T16:13:22.228Z,26.37
2023-03-06T16:13:45.901Z,26.42
2023-03-06T16:14:24.438Z,25.98
2023-03-06T16:14:47.814Z,26.23
2023-03-06T16:15:21.786Z,26.48
2023-03-06T16:15:50.192Z,26.37
2023-03-06T16:16:19.060Z,25.93
2023-03-06T16:16:41.442Z,26.23
2023-03-06T16:17:03.286Z,26.52
2023-03-06T16:17:25.145Z,26.77
2023-03-06T16:17:50.683Z,26.61
2023-03-06T16:18:13.387Z,26.74
2023-03-06T16:18:35.391Z,26.88
2023-03-06T16:18:57.545Z,26.66
2023-03-06T16:19:27.377Z,26.80
2023-03-06T16:19:49.916Z,26.77
2023-03-06T16:20:18.820Z,26.78
2023-03-06T16:20:41.762Z,27.01
2023-03-06T16:21:03.776Z,26.88
2023-03-06T16:21:25.709Z,26.70
2023-03-06T16:21:47.939Z,26.91
2023-03-06T16:22:09.924Z,26.76
2023-03-06T16:22:31.683Z,26.98
2023-03-06T16:22:54.998Z,26.92
2023-03-06T16:23:16.869Z,27.05
2023-03-06T16:23:39.644Z,26.89
2023-03-06T16:24:01.502Z,26.46
2023-03-06T16:24:25.037Z,26.63
2023-03-06T16:24:46.893Z,26.47
2023-03-06T16:25:09.002Z,26.51
2023-03-06T16:25:31.034Z,26.54
2023-03-06T16:25:52.812Z,26.84
2023-03-06T16:26:31.296Z,26.99
2023-03-06T16:26:56.222Z,26.64
2023-03-06T16:27:23.651Z,26.57
2023-03-06T16:28:04.544Z,26.71
2023-03-06T16:28:28.111Z,26.89
2023-03-06T16:28:49.931Z,26.81
2023-03-06T16:29:30.665Z,27.30
2023-03-06T16:30:18.322Z,26.81
2023-03-06T16:30:58.718Z,27.02
2023-03-06T16:31:39.307Z,27.05
2023-03-06T16:32:22.833Z,26.85
2023-03-06T16:33:03.707Z,26.63
2023-03-06T16:33:45.884Z,26.81
2023-03-06T16:34:28.080Z,27.01
2023-03-06T16:35:11.044Z,26.97
2023-03-06T16:35:53.215Z,27.29
2023-03-06T16:36:35.511Z,27.28
2023-03-06T16:37:17.661Z,27.02
2023-03-06T16:38:00.461Z,27.14
2023-03-06T16:38:42.597Z,27.09
2023-03-06T16:39:24.974Z,27.04
2023-03-06T16:40:32.912Z,27.27
2023-03-06T16:41:17.101Z,27.35
2023-03-06T16:41:59.208Z,26.96
2023-03-06T16:42:41.363Z,27.22
2023-03-06T16:43:23.520Z,27.19
2023-03-06T16:44:07.901Z,27.31
2023-03-06T16:44:50.138Z,27.21
2023-03-06T16:45:37.553Z,27.27
2023-03-06T16:46:23.921Z,27.56
2023-03-06T16:47:06.324Z,27.32
2023-03-06T16:47:49.677Z,26.92
2023-03-06T16:48:31.902Z,27.64
2023-03-06T16:49:17.800Z,27.15
2023-03-06T16:50:02.461Z,27.32
2023-03-06T16:50:45.433Z,27.49
2023-03-06T16:51:27.611Z,26.96
2023-03-06T16:52:11.318Z,27.59
2023-03-06T16:52:54.749Z,27.43
2023-03-06T16:53:36.864Z,27.58
2023-03-06T16:54:19.473Z,27.42
2023-03-06T16:55:01.637Z,27.76
2023-03-06T16:55:43.942Z,27.47
2023-03-06T16:56:25.970Z,27.66
2023-03-06T16:57:13.853Z,27.89
2023-03-06T16:57:56.123Z,27.34
2023-03-06T16:58:39.492Z,27.43
2023-03-06T16:59:21.763Z,27.64
2023-03-06T17:00:06.703Z,27.62
2023-03-06T17:00:48.982Z,27.43
2023-03-06T17:01:31.228Z,27.68
2023-03-06T17:02:13.410Z,27.91
2023-03-06T17:02:55.937Z,27.35
2023-03-06T17:03:39.457Z,27.74
2023-03-06T17:04:21.616Z,27.75
2023-03-06T17:05:05.223Z,27.60
2023-03-06T17:05:47.384Z,27.73
2023-03-06T17:06:30.877Z,27.55
2023-03-06T17:07:13.113Z,27.63
2023-03-06T17:07:56.227Z,27.85
2023-03-06T17:08:38.322Z,27.57
2023-03-06T17:09:20.475Z,27.82
2023-03-06T17:10:07.321Z,27.77
2023-03-06T17:10:50.299Z,27.52
2023-03-06T17:11:32.502Z,27.95
2023-03-06T17:12:14.623Z,27.78
2023-03-06T17:12:57.395Z,27.39
2023-03-06T17:13:40.622Z,27.57
2023-03-06T17:14:22.789Z,27.87
2023-03-06T17:15:06.533Z,28.23
2023-03-06T17:15:59.581Z,27.99
2023-03-06T17:16:42.723Z,28.10
2023-03-06T17:17:24.874Z,27.93
2023-03-06T17:18:07.388Z,28.27
2023-03-06T17:18:49.999Z,28.04
2023-03-06T17:19:32.250Z,28.14
2023-03-06T17:20:15.508Z,27.55
2023-03-06T17:20:58.732Z,27.96
2023-03-06T17:21:42.090Z,28.19
2023-03-06T17:22:24.577Z,27.88
2023-03-06T17:23:06.674Z,28.14
2023-03-06T17:23:51.145Z,28.01
2023-03-06T17:24:33.362Z,28.08
2023-03-06T17:25:15.516Z,27.98
2023-03-06T17:26:09.144Z,27.82
2023-03-06T17:26:51.540Z,28.14
2023-03-06T17:27:34.783Z,28.05
2023-03-06T17:28:16.808Z,28.06
2023-03-06T17:28:59.129Z,28.21
2023-03-06T17:29:41.237Z,28.17
2023-03-06T17:30:26.295Z,28.27
2023-03-06T17:31:13.157Z,28.37
2023-03-06T17:31:55.736Z,28.04
2023-03-06T17:32:41.320Z,28.16
2023-03-06T17:33:24.634Z,28.01
2023-03-06T17:34:06.954Z,28.49
2023-03-06T17:34:49.001Z,28.61
2023-03-06T17:35:31.206Z,28.67
2023-03-06T17:36:15.119Z,28.66
2023-03-06T17:36:57.285Z,28.73
2023-03-06T17:37:39.631Z,28.55
2023-03-06T17:38:21.782Z,28.53
2023-03-06T17:39:04.528Z,28.65
2023-03-06T17:39:47.426Z,28.63
2023-03-06T17:40:29.902Z,28.70
2023-03-06T17:41:13.579Z,29.03
2023-03-06T17:41:58.473Z,28.90
2023-03-06T17:42:40.556Z,28.69
2023-03-06T17:43:23.035Z,28.66
2023-03-06T17:44:05.343Z,28.96
2023-03-06T17:44:48.433Z,29.17
2023-03-06T17:45:30.832Z,29.19
2023-03-06T17:46:13.727Z,29.51
2023-03-06T17:46:56.403Z,29.69
2023-03-06T17:47:38.533Z,29.20
2023-03-06T17:48:20.743Z,29.06
2023-03-06T17:49:03.270Z,28.85
2023-03-06T17:49:45.698Z,28.61
2023-03-06T17:50:28.482Z,29.02
2023-03-06T17:51:11.634Z,28.96
2023-03-06T17:51:56.604Z,29.14
2023-03-06T17:52:39.164Z,29.12
2023-03-06T17:53:22.176Z,29.16
2023-03-06T17:54:04.855Z,28.81
2023-03-06T17:54:46.940Z,29.02
2023-03-06T17:55:30.175Z,28.65
2023-03-06T17:56:14.312Z,28.89
2023-03-06T17:57:01.250Z,28.74
2023-03-06T17:57:43.682Z,28.55
2023-03-06T17:58:27.731Z,28.64
2023-03-06T17:59:10.672Z,28.78
2023-03-06T17:59:53.273Z,28.87
2023-03-06T18:00:36.226Z,28.68
2023-03-06T18:01:27.631Z,28.77
2023-03-06T18:02:10.942Z,28.69
2023-03-06T18:02:53.461Z,28.32
2023-03-06T18:03:38.455Z,28.78
2023-03-06T18:04:20.802Z,28.66
2023-03-06T18:05:03.828Z,28.48
2023-03-06T18:05:46.023Z,28.41
2023-03-06T18:06:30.748Z,28.24
2023-03-06T18:07:13.624Z,28.68
2023-03-06T18:07:55.953Z,28.36
2023-03-06T18:08:38.947Z,28.13
2023-03-06T18:09:21.252Z,28.53
2023-03-06T18:10:04.638Z,28.55
2023-03-06T18:10:47.824Z,28.39
2023-03-06T18:11:31.044Z,28.57
2023-03-06T18:12:17.370Z,28.69
2023-03-06T18:12:59.624Z,28.26
2023-03-06T18:13:44.348Z,28.62
2023-03-06T18:14:37.422Z,28.55
2023-03-06T18:15:23.461Z,28.94
2023-03-06T18:16:17.301Z,28.71
2023-03-06T18:17:00.940Z,28.81
2023-03-06T18:17:49.182Z,28.93
2023-03-06T18:18:35.946Z,28.65
2023-03-06T18:19:19.351Z,28.81
2023-03-06T18:20:02.501Z,28.71
2023-03-06T18:20:48.664Z,28.69
2023-03-06T18:21:33.670Z,28.57
2023-03-06T18:22:18.753Z,28.75
2023-03-06T18:23:07.598Z,28.60
2023-03-06T18:23:51.362Z,28.88
2023-03-06T18:24:33.524Z,28.77
2023-03-06T18:25:23.110Z,28.78
2023-03-06T18:26:21.271Z,28.96
2023-03-06T18:27:07.830Z,28.93
2023-03-06T18:28:13.582Z,28.78
2023-03-06T18:29:04.783Z,28.48
2023-03-06T18:29:50.119Z,28.47
2023-03-06T18:30:41.463Z,28.57
2023-03-06T18:31:42.779Z,28.31
2023-03-06T18:32:26.832Z,28.46
2023-03-06T18:33:12.502Z,28.55
2023-03-06T18:33:59.402Z,28.44
2023-03-06T18:34:49.790Z,28.19
2023-03-06T18:35:33.421Z,28.50
2023-03-06T18:36:17.126Z,28.56
2023-03-06T18:36:59.282Z,28.52
2023-03-06T18:37:41.647Z,28.29
2023-03-06T18:38:23.941Z,28.33
2023-03-06T18:39:09.789Z,28.39
2023-03-06T18:39:51.894Z,28.05
2023-03-06T18:40:37.320Z,28.26
2023-03-06T18:41:20.479Z,28.25
2023-03-06T18:42:07.396Z,28.34
2023-03-06T18:42:50.051Z,28.37
2023-03-06T18:43:32.370Z,28.16
2023-03-06T18:44:19.391Z,28.38
2023-03-06T18:45:04.656Z,28.18
2023-03-06T18:45:55.314Z,28.20
2023-03-06T18:46:39.433Z,28.14
2023-03-06T18:47:21.790Z,28.20
2023-03-06T18:48:05.920Z,28.25
2023-03-06T18:48:51.659Z,28.24
2023-03-06T18:49:33.810Z,28.40
2023-03-06T18:50:17.794Z,28.45
2023-03-06T18:51:25.396Z,28.45
2023-03-06T18:52:09.250Z,28.90
2023-03-06T18:52:51.334Z,28.54
2023-03-06T18:53:34.004Z,28.66
2023-03-06T18:54:16.572Z,28.72
2023-03-06T18:55:00.813Z,28.73
2023-03-06T18:55:53.698Z,28.82
2023-03-06T18:56:36.052Z,28.70
2023-03-06T18:57:18.399Z,28.78
2023-03-06T18:58:00.469Z,28.82
2023-03-06T18:58:43.582Z,28.92
2023-03-06T18:59:26.528Z,28.64
2023-03-06T19:00:08.868Z,28.77
2023-03-06T19:00:51.434Z,28.75
2023-03-06T19:01:34.816Z,28.57
2023-03-06T19:02:17.101Z,28.38
2023-03-06T19:03:01.636Z,28.44
2023-03-06T19:03:44.448Z,28.53
2023-03-06T19:04:27.365Z,28.73
2023-03-06T19:05:09.644Z,28.48
2023-03-06T19:05:51.775Z,28.56
2023-03-06T19:06:33.979Z,28.42
2023-03-06T19:07:16.343Z,28.50
2023-03-06T19:07:59.092Z,28.49
2023-03-06T19:08:41.497Z,28.54
2023-03-06T19:09:23.966Z,28.59
2023-03-06T19:10:09.526Z,28.41
2023-03-06T19:10:54.875Z,28.51
2023-03-06T19:11:40.356Z,28.54
2023-03-06T19:12:32.957Z,28.38
2023-03-06T19:13:16.061Z,28.57
2023-03-06T19:13:58.497Z,28.43
2023-03-06T19:14:40.579Z,28.36
2023-03-06T19:15:22.706Z,28.36
2023-03-06T19:16:05.634Z,28.61
2023-03-06T19:16:50.881Z,28.19
2023-03-06T19:17:33.525Z,28.25
2023-03-06T19:18:19.228Z,28.48
2023-03-06T19:19:01.488Z,28.15
2023-03-06T19:19:44.150Z,28.13
2023-03-06T19:20:27.095Z,28.28
2023-03-06T19:21:15.274Z,28.37
2023-03-06T19:21:58.978Z,28.23
2023-03-06T19:22:41.176Z,28.36
2023-03-06T19:23:26.481Z,28.27
2023-03-06T19:24:13.620Z,28.23
2023-03-06T19:24:55.980Z,28.06
2023-03-06T19:25:38.172Z,28.14
2023-03-06T19:26:20.722Z,28.08
2023-03-06T19:27:02.729Z,28.13
2023-03-06T19:27:46.524Z,28.24
2023-03-06T19:28:28.773Z,28.21
2023-03-06T19:29:10.950Z,28.42
2023-03-06T19:29:53.094Z,28.18
2023-03-06T19:30:35.266Z,27.87
2023-03-06T19:31:25.437Z,28.20
2023-03-06T19:32:08.094Z,28.33
2023-03-06T19:32:50.325Z,28.33
2023-03-06T19:33:32.680Z,28.10
2023-03-06T19:34:14.791Z,28.20
2023-03-06T19:35:03.913Z,28.17
2023-03-06T19:35:48.520Z,28.19
2023-03-06T19:36:33.984Z,28.08
2023-03-06T19:37:16.486Z,28.10
2023-03-06T19:37:58.764Z,27.94
2023-03-06T19:38:41.727Z,28.16
2023-03-06T19:39:24.623Z,28.21
2023-03-06T19:40:09.990Z,28.21
2023-03-06T19:40:52.441Z,28.14
2023-03-06T19:41:38.046Z,28.22
2023-03-06T19:42:23.216Z,28.09
2023-03-06T19:43:05.220Z,28.03
2023-03-06T19:43:52.483Z,28.18
2023-03-06T19:44:35.020Z,28.17
2023-03-06T19:45:17.381Z,28.26
2023-03-06T19:46:00.824Z,28.22
2023-03-06T19:46:45.888Z,28.31
2023-03-06T19:47:28.158Z,28.31
2023-03-06T19:48:12.563Z,28.30
2023-03-06T19:49:00.137Z,28.21
2023-03-06T19:49:42.944Z,28.19
2023-03-06T19:50:29.882Z,28.04
2023-03-06T19:51:12.792Z,28.08
2023-03-06T19:51:54.982Z,28.20
2023-03-06T19:52:39.512Z,28.12
2023-03-06T19:53:25.413Z,28.16
2023-03-06T19:54:10.357Z,28.20
2023-03-06T19:54:56.171Z,28.04
2023-03-06T19:55:38.992Z,28.08
2023-03-06T19:56:26.417Z,28.37
2023-03-06T19:57:14.247Z,28.30
2023-03-06T19:57:56.344Z,28.19
2023-03-06T19:58:38.624Z,28.32
2023-03-06T19:59:20.854Z,28.21
2023-03-06T20:00:03.487Z,28.22
2023-03-06T20:00:45.681Z,28.30
2023-03-06T20:01:28.803Z,28.05
2023-03-06T20:02:11.871Z,28.21
2023-03-06T20:02:53.975Z,28.13
2023-03-06T20:03:37.243Z,28.20
2023-03-06T20:04:19.920Z,28.17
2023-03-06T20:05:02.113Z,27.97
2023-03-06T20:05:50.793Z,28.20
2023-03-06T20:06:36.961Z,28.31
2023-03-06T20:07:23.165Z,28.13
2023-03-06T20:08:05.528Z,28.33
2023-03-06T20:08:48.313Z,28.20
2023-03-06T20:09:33.724Z,28.19
2023-03-06T20:10:16.094Z,28.30
2023-03-06T20:10:58.271Z,28.13
2023-03-06T20:11:40.413Z,28.00
2023-03-06T20:12:24.921Z,28.04
2023-03-06T20:13:09.823Z,28.06
2023-03-06T20:13:53.047Z,28.22
2023-03-06T20:14:35.381Z,28.22
2023-03-06T20:15:24.887Z,28.04
2023-03-06T20:16:10.516Z,28.19
2023-03-06T20:16:52.755Z,28.09
2023-03-06T20:17:34.977Z,28.01
2023-03-06T20:18:17.597Z,28.07
2023-03-06T20:19:06.207Z,28.19
2023-03-06T20:19:51.625Z,28.51
2023-03-06T20:20:33.786Z,28.43
2023-03-06T20:21:17.205Z,28.39
2023-03-06T20:21:59.622Z,28.30
2023-03-06T20:22:41.796Z,28.32
2023-03-06T20:23:27.532Z,28.53
2023-03-06T20:24:18.083Z,28.58
2023-03-06T20:25:00.233Z,28.58
2023-03-06T20:25:42.602Z,28.40
2023-03-06T20:26:26.388Z,28.50
2023-03-06T20:27:11.481Z,28.52
2023-03-06T20:27:53.632Z,28.41
2023-03-06T20:28:39.754Z,28.38
2023-03-06T20:29:22.962Z,28.43
2023-03-06T20:30:07.884Z,28.31
2023-03-06T20:30:50.388Z,28.67
2023-03-06T20:31:32.972Z,28.49
2023-03-06T20:32:15.171Z,28.45
2023-03-06T20:32:57.425Z,28.36
2023-03-06T20:33:45.084Z,28.31
2023-03-06T20:34:27.280Z,28.09
2023-03-06T20:35:09.861Z,28.50
2023-03-06T20:35:52.125Z,28.41
2023-03-06T20:36:40.763Z,28.53
2023-03-06T20:37:22.937Z,28.41
2023-03-06T20:38:08.261Z,28.21
2023-03-06T20:38:51.105Z,28.51
2023-03-06T20:39:33.872Z,28.29
2023-03-06T20:40:16.694Z,28.47
2023-03-06T20:41:05.371Z,28.10
2023-03-06T20:41:48.401Z,28.13
2023-03-06T20:42:30.617Z,28.17
2023-03-06T20:43:12.824Z,28.28
2023-03-06T20:43:57.298Z,28.24
2023-03-06T20:44:39.589Z,27.99
2023-03-06T20:45:21.730Z,28.39
2023-03-06T20:46:06.414Z,28.41
2023-03-06T20:46:49.088Z,28.18
2023-03-06T20:47:31.670Z,28.45
2023-03-06T20:48:14.172Z,28.34
2023-03-06T20:49:00.250Z,28.31
2023-03-06T20:49:42.571Z,28.31
2023-03-06T20:50:26.386Z,28.36
2023-03-06T20:51:16.877Z,28.43
2023-03-06T20:51:58.857Z,28.07
2023-03-06T20:52:41.489Z,28.01
2023-03-06T20:53:23.833Z,28.09
2023-03-06T20:54:08.873Z,28.32
2023-03-06T20:54:53.887Z,28.11
2023-03-06T20:55:38.962Z,28.44
2023-03-06T20:56:26.278Z,28.20
2023-03-06T20:57:14.097Z,28.37
2023-03-06T20:57:59.458Z,28.23
2023-03-06T20:58:45.398Z,28.09
2023-03-06T20:59:27.553Z,28.41
2023-03-06T21:00:11.344Z,28.50
2023-03-06T21:00:53.445Z,28.36
2023-03-06T21:01:41.352Z,28.46
2023-03-06T21:02:26.634Z,28.32
2023-03-06T21:03:12.797Z,28.58
2023-03-06T21:03:56.986Z,28.37
2023-03-06T21:04:41.247Z,28.46
2023-03-06T21:05:23.610Z,28.22
2023-03-06T21:06:05.946Z,28.57
2023-03-06T21:06:49.691Z,28.42
2023-03-06T21:07:36.556Z,28.38
2023-03-06T21:08:20.493Z,28.57
2023-03-06T21:09:05.089Z,28.38
2023-03-06T21:09:47.961Z,28.34
2023-03-06T21:10:31.457Z,28.07
2023-03-06T21:11:14.181Z,28.31
2023-03-06T21:12:00.586Z,28.45
2023-03-06T21:12:42.789Z,28.13
2023-03-06T21:13:24.974Z,28.33
2023-03-06T21:14:07.229Z,28.39
2023-03-06T21:14:49.363Z,28.29
2023-03-06T21:15:31.811Z,28.20
2023-03-06T21:16:21.120Z,28.45
2023-03-06T21:17:03.328Z,28.25
2023-03-06T21:17:48.334Z,28.14
2023-03-06T21:18:30.613Z,28.24
2023-03-06T21:19:13.186Z,28.42
2023-03-06T21:19:57.760Z,28.38
2023-03-06T21:20:41.213Z,28.32
2023-03-06T21:21:25.055Z,28.24
2023-03-06T21:22:10.833Z,28.33
2023-03-06T21:22:53.020Z,28.30
2023-03-06T21:23:35.474Z,28.42
2023-03-06T21:24:18.880Z,28.51
2023-03-06T21:25:02.133Z,28.44
2023-03-06T21:25:52.618Z,28.43
2023-03-06T21:26:36.983Z,28.60
2023-03-06T21:27:21.106Z,28.84
2023-03-06T21:28:03.320Z,28.92
2023-03-06T21:28:45.993Z,28.63
2023-03-06T21:29:33.868Z,28.77
2023-03-06T21:30:16.101Z,28.73
2023-03-06T21:31:20.820Z,28.63
2023-03-06T21:32:02.990Z,28.42
2023-03-06T21:32:45.558Z,28.46
2023-03-06T21:33:27.609Z,28.56
2023-03-06T21:34:11.646Z,28.62
2023-03-06T21:34:56.678Z,28.40
2023-03-06T21:35:40.763Z,28.34
2023-03-06T21:36:23.589Z,28.40
2023-03-06T21:37:05.718Z,28.32
2023-03-06T21:37:48.332Z,28.52
2023-03-06T21:38:30.642Z,28.41
2023-03-06T21:39:14.390Z,28.41
2023-03-06T21:40:00.480Z,28.18
2023-03-06T21:40:46.017Z,28.24
2023-03-06T21:41:32.828Z,28.16
2023-03-06T21:42:17.277Z,28.36
2023-03-06T21:43:03.710Z,28.29
2023-03-06T21:43:46.120Z,28.27
2023-03-06T21:44:28.247Z,28.30
2023-03-06T21:45:14.179Z,28.34
2023-03-06T21:46:01.917Z,28.32
2023-03-06T21:46:44.294Z,28.40
2023-03-06T21:47:28.956Z,28.40
2023-03-06T21:48:11.105Z,28.25
2023-03-06T21:48:54.070Z,28.44
2023-03-06T21:49:36.229Z,28.13
2023-03-06T21:50:18.557Z,28.32
2023-03-06T21:51:13.062Z,28.11
2023-03-06T21:51:55.557Z,28.00
2023-03-06T21:52:37.773Z,28.02
2023-03-06T21:53:19.917Z,28.37
2023-03-06T21:54:05.569Z,28.18
2023-03-06T21:54:51.929Z,28.28
2023-03-06T21:55:37.556Z,28.20
2023-03-06T21:56:22.670Z,28.29
2023-03-06T21:57:05.319Z,27.97
2023-03-06T21:57:57.088Z,28.42
2023-03-06T21:58:44.370Z,28.29
2023-03-06T21:59:29.255Z,28.23
2023-03-06T22:00:14.379Z,28.18
2023-03-06T22:00:57.613Z,28.03
2023-03-06T22:01:39.987Z,28.04
2023-03-06T22:02:22.157Z,28.35
2023-03-06T22:03:05.127Z,28.09
2023-03-06T22:03:52.011Z,28.20
2023-03-06T22:04:35.604Z,28.17
2023-03-06T22:05:18.350Z,28.10
2023-03-06T22:06:16.180Z,28.16
2023-03-06T22:06:58.381Z,28.00
2023-03-06T22:07:40.578Z,28.15
2023-03-06T22:08:24.749Z,28.04
2023-03-06T22:09:07.015Z,28.26
2023-03-06T22:09:54.444Z,27.97
2023-03-06T22:10:39.626Z,28.17
2023-03-06T22:11:26.726Z,28.18
2023-03-06T22:12:09.066Z,28.35
2023-03-06T22:12:51.218Z,27.94
2023-03-06T22:13:33.650Z,28.12
2023-03-06T22:14:16.140Z,28.08
2023-03-06T22:14:58.317Z,28.08
2023-03-06T22:15:48.627Z,28.22
2023-03-06T22:16:31.109Z,28.14
2023-03-06T22:17:13.871Z,28.20
2023-03-06T22:17:56.259Z,28.09
2023-03-06T22:18:39.200Z,27.88
2023-03-06T22:19:32.995Z,28.12
2023-03-06T22:20:15.596Z,28.20
2023-03-06T22:20:58.056Z,28.14
2023-03-06T22:21:41.280Z,28.05
2023-03-06T22:22:25.681Z,28.27
2023-03-06T22:23:10.286Z,28.34
2023-03-06T22:23:57.112Z,28.37
2023-03-06T22:24:39.426Z,28.32
2023-03-06T22:25:21.528Z,28.42
2023-03-06T22:26:09.931Z,28.45
2023-03-06T22:26:54.549Z,28.20
2023-03-06T22:27:16.835Z,28.36
2023-03-06T22:27:38.730Z,28.21
2023-03-06T22:28:00.649Z,28.19
2023-03-06T22:28:22.536Z,28.28
2023-03-06T22:28:45.254Z,28.22
2023-03-06T22:29:07.208Z,28.12
2023-03-06T22:29:29.165Z,28.19
2023-03-06T22:29:50.995Z,28.30
2023-03-06T22:30:13.553Z,28.14
2023-03-06T22:30:35.286Z,28.03
2023-03-06T22:31:06.965Z,28.17
2023-03-06T22:31:29.345Z,27.92
2023-03-06T22:31:53.651Z,28.44
2023-03-06T22:32:18.701Z,28.53
2023-03-06T22:32:46.040Z,27.56
2023-03-06T22:33:10.496Z,28.41
2023-03-06T22:33:34.861Z,28.12
2023-03-06T22:33:58.965Z,27.94
2023-03-06T22:34:20.784Z,28.06
2023-03-06T22:34:42.546Z,28.23
2023-03-06T22:35:11.589Z,28.07
2023-03-06T22:35:33.493Z,28.17
2023-03-06T22:36:02.713Z,28.06
2023-03-06T22:36:33.755Z,28.17
2023-03-06T22:37:02.384Z,28.29
2023-03-06T22:37:33.502Z,28.02
2023-03-06T22:37:58.843Z,27.70
2023-03-06T22:38:23.398Z,28.09
2023-03-06T22:38:46.669Z,27.91
2023-03-06T22:39:08.671Z,27.94
2023-03-06T22:39:33.591Z,27.83
2023-03-06T22:39:57.947Z,28.00
2023-03-06T22:40:20.129Z,27.59
2023-03-06T22:40:42.153Z,27.94
2023-03-06T22:41:06.130Z,27.77
2023-03-06T22:41:33.734Z,27.95
2023-03-06T22:42:02.646Z,27.60
2023-03-06T22:42:32.649Z,28.15
2023-03-06T22:43:00.891Z,28.04
2023-03-06T22:43:24.334Z,27.88
2023-03-06T22:43:46.540Z,27.63
2023-03-06T22:44:17.790Z,27.96
2023-03-06T22:44:40.121Z,28.01
2023-03-06T22:45:05.385Z,28.00
2023-03-06T22:45:30.255Z,27.78
2023-03-06T22:45:53.499Z,27.62
2023-03-06T22:46:19.046Z,27.88
2023-03-06T22:46:41.749Z,27.75
2023-03-06T22:47:09.775Z,28.00
2023-03-06T22:47:40.969Z,27.94
2023-03-06T22:48:10.842Z,27.79
2023-03-06T22:48:41.508Z,27.74
2023-03-06T22:49:05.400Z,28.02
2023-03-06T22:49:27.458Z,27.87
2023-03-06T22:49:54.302Z,27.70
2023-03-06T22:50:21.703Z,27.45
2023-03-06T22:50:44.292Z,27.41
2023-03-06T22:51:17.625Z,27.04
2023-03-06T22:51:41.041Z,27.33
2023-03-06T22:52:03.621Z,27.18
2023-03-06T22:52:25.692Z,27.58
2023-03-06T22:52:47.630Z,27.51
2023-03-06T22:53:09.583Z,27.47
2023-03-06T22:53:32.852Z,27.68
2023-03-06T22:53:58.136Z,27.60
2023-03-06T22:54:20.465Z,27.76
2023-03-06T22:54:51.012Z,27.34
2023-03-06T22:55:12.754Z,27.65
2023-03-06T22:55:35.355Z,27.63
2023-03-06T22:56:01.925Z,27.49
2023-03-06T22:56:23.715Z,27.86
2023-03-06T22:57:07.609Z,27.94
2023-03-06T22:57:49.828Z,27.47
2023-03-06T22:58:37.443Z,27.40
2023-03-06T22:59:17.967Z,27.59
2023-03-06T22:59:58.759Z,27.52
2023-03-06T23:00:57.435Z,27.76
2023-03-06T23:01:43.078Z,27.01
2023-03-06T23:02:46.447Z,26.65
2023-03-06T23:03:31.361Z,27.34
2023-03-06T23:04:14.279Z,27.10
2023-03-06T23:05:04.125Z,27.09
2023-03-06T23:05:45.102Z,27.29
2023-03-06T23:06:36.041Z,27.42
2023-03-06T23:07:16.719Z,27.15
2023-03-06T23:07:57.236Z,27.42
2023-03-06T23:09:23.280Z,27.49
2023-03-06T23:10:04.816Z,27.75
2023-03-06T23:10:45.005Z,27.77
2023-03-06T23:11:28.102Z,27.90
2023-03-06T23:12:14.254Z,28.13
2023-03-06T23:12:54.580Z,27.97
2023-03-06T23:13:34.699Z,27.96
2023-03-06T23:14:16.741Z,27.70
2023-03-06T23:14:57.377Z,28.07
2023-03-06T23:15:37.634Z,28.26
2023-03-06T23:16:18.096Z,27.80
2023-03-06T23:16:58.463Z,27.69
2023-03-06T23:17:38.828Z,28.07
2023-03-06T23:18:19.316Z,28.02
2023-03-06T23:18:59.993Z,28.30
2023-03-06T23:19:40.812Z,27.88
2023-03-06T23:20:21.682Z,27.62
2023-03-06T23:21:05.983Z,27.57
2023-03-06T23:21:47.735Z,27.72
2023-03-06T23:22:28.184Z,27.12
2023-03-06T23:23:08.556Z,27.11
2023-03-06T23:23:50.040Z,27.04
2023-03-06T23:24:31.777Z,26.99
2023-03-06T23:25:12.568Z,26.93
2023-03-06T23:25:59.531Z,27.31
2023-03-06T23:26:41.107Z,27.37
2023-03-06T23:27:21.776Z,27.12
2023-03-06T23:28:03.195Z,26.93
2023-03-06T23:28:47.080Z,27.19
2023-03-06T23:29:27.404Z,26.83
2023-03-06T23:30:09.529Z,26.76
2023-03-06T23:30:50.026Z,26.68
2023-03-06T23:31:35.043Z,26.75
2023-03-06T23:32:17.252Z,26.72
2023-03-06T23:32:57.776Z,26.66
2023-03-06T23:33:42.343Z,26.60
